createdAt,value
2023-04-01T00:04:49.027Z,98470.00
2023-04-01T00:09:52.704Z,98469.40
2023-04-01T00:14:55.854Z,98470.00
2023-04-01T00:19:59.338Z,98468.40
2023-04-01T00:25:03.184Z,98470.60
2023-04-01T00:30:07.493Z,98470.00
2023-04-01T00:35:12.041Z,98465.40
2023-04-01T00:40:47.650Z,98456.80
2023-04-01T00:45:51.632Z,98463.60
2023-04-01T00:51:12.748Z,98460.40
2023-04-01T00:56:28.010Z,98464.20
2023-04-01T01:01:33.389Z,98455.00
2023-04-01T01:06:49.126Z,98456.60
2023-04-01T01:12:38.963Z,98453.00
2023-04-01T01:18:05.253Z,98447.60
2023-04-01T01:23:23.514Z,98449.60
2023-04-01T01:29:13.440Z,98455.00
2023-04-01T01:34:34.033Z,98450.60
2023-04-01T01:39:38.587Z,98454.60
2023-04-01T01:44:46.890Z,98454.20
2023-04-01T01:49:53.158Z,98454.40
2023-04-01T01:54:59.011Z,98455.60
2023-04-01T02:00:15.654Z,98448.00
2023-04-01T02:05:25.767Z,98441.20
2023-04-01T02:10:35.132Z,98445.20
2023-04-01T02:15:47.384Z,98457.60
2023-04-01T02:20:52.192Z,98456.80
2023-04-01T02:25:56.308Z,98451.60
2023-04-01T02:31:03.664Z,98451.40
2023-04-01T02:36:13.232Z,98448.60
2023-04-01T02:41:16.395Z,98451.20
2023-04-01T02:46:19.567Z,98452.20
2023-04-01T02:51:22.888Z,98456.40
2023-04-01T02:56:27.324Z,98456.60
2023-04-01T03:01:30.460Z,98457.40
2023-04-01T03:06:33.744Z,98456.80
2023-04-01T03:11:36.854Z,98464.20
2023-04-01T03:16:40.023Z,98467.00
2023-04-01T03:21:43.267Z,98469.00
2023-04-01T03:26:46.629Z,98470.80
2023-04-01T03:31:49.886Z,98474.40
2023-04-01T03:36:53.919Z,98474.20
2023-04-01T03:41:56.930Z,98475.80
2023-04-01T03:47:00.574Z,98472.40
2023-04-01T03:52:04.054Z,98470.80
2023-04-01T03:57:07.506Z,98473.00
2023-04-01T04:02:11.028Z,98472.20
2023-04-01T04:07:14.651Z,98479.60
2023-04-01T04:12:17.710Z,98484.00
2023-04-01T04:17:20.724Z,98485.80
2023-04-01T04:22:24.028Z,98494.20
2023-04-01T04:27:27.132Z,98505.20
2023-04-01T04:32:31.910Z,98501.00
2023-04-01T04:37:34.986Z,98500.80
2023-04-01T04:42:37.993Z,98501.20
2023-04-01T04:47:41.313Z,98504.20
2023-04-01T04:52:44.453Z,98507.20
2023-04-01T04:57:47.612Z,98513.20
2023-04-01T05:02:50.773Z,98513.60
2023-04-01T05:07:54.026Z,98519.00
2023-04-01T05:12:57.268Z,98523.60
2023-04-01T05:18:00.411Z,98536.20
2023-04-01T05:23:03.997Z,98534.80
2023-04-01T05:28:07.076Z,98540.60
2023-04-01T05:33:12.302Z,98542.40
2023-04-01T05:38:16.046Z,98543.40
2023-04-01T05:43:19.063Z,98547.60
2023-04-01T05:48:22.464Z,98550.80
2023-04-01T05:53:25.571Z,98555.20
2023-04-01T05:58:28.685Z,98553.40
2023-04-01T06:03:32.259Z,98557.40
2023-04-01T06:08:35.523Z,98562.60
2023-04-01T06:13:54.131Z,98566.20
2023-04-01T06:19:18.580Z,98572.40
2023-04-01T06:24:43.502Z,98575.40
2023-04-01T06:30:23.675Z,98582.60
2023-04-01T06:35:39.959Z,98582.00
2023-04-01T06:41:21.502Z,98584.40
2023-04-01T06:47:00.416Z,98592.00
2023-04-01T06:52:48.828Z,98590.20
2023-04-01T06:57:56.629Z,98595.20
2023-04-01T07:03:30.433Z,98605.80
2023-04-01T07:08:41.682Z,98607.80
2023-04-01T07:13:56.020Z,98621.20
2023-04-01T07:19:43.260Z,98624.80
2023-04-01T07:24:47.854Z,98630.60
2023-04-01T07:29:50.911Z,98629.60
2023-04-01T07:35:24.227Z,98628.80
2023-04-01T07:40:51.628Z,98633.00
2023-04-01T07:46:36.517Z,98635.80
2023-04-01T07:51:44.711Z,98643.40
2023-04-01T07:57:21.961Z,98647.60
2023-04-01T08:02:49.663Z,98656.00
2023-04-01T08:08:20.990Z,98657.20
2023-04-01T08:14:01.453Z,98659.80
2023-04-01T08:20:01.400Z,98665.80
2023-04-01T08:25:15.198Z,98667.40
2023-04-01T08:30:28.310Z,98672.40
2023-04-01T08:35:45.227Z,98673.40
2023-04-01T08:41:51.311Z,98679.20
2023-04-01T08:47:42.308Z,98679.20
2023-04-01T08:53:13.822Z,98686.00
2023-04-01T08:58:47.937Z,98682.80
2023-04-01T09:04:18.133Z,98681.00
2023-04-01T09:09:49.342Z,98689.60
2023-04-01T09:15:42.169Z,98695.20
2023-04-01T09:21:03.977Z,98694.40
2023-04-01T09:26:25.206Z,98704.00
2023-04-01T09:31:46.349Z,98716.80
2023-04-01T09:37:08.097Z,98723.60
2023-04-01T09:42:14.153Z,98731.20
2023-04-01T09:47:48.318Z,98735.00
2023-04-01T09:53:15.880Z,98741.60
2023-04-01T09:58:43.709Z,98749.60
2023-04-01T10:04:31.392Z,98753.40
2023-04-01T10:10:24.266Z,98755.80
2023-04-01T10:15:45.898Z,98763.80
2023-04-01T10:21:16.155Z,98771.20
2023-04-01T10:27:06.869Z,98775.20
2023-04-01T10:32:47.180Z,98781.00
2023-04-01T10:38:41.867Z,98779.00
2023-04-01T10:44:09.442Z,98781.60
2023-04-01T10:49:33.845Z,98795.40
2023-04-01T10:55:05.848Z,98798.80
2023-04-01T11:01:00.427Z,98803.00
2023-04-01T11:06:50.663Z,98807.80
2023-04-01T11:12:41.787Z,98809.20
2023-04-01T11:18:29.437Z,98815.60
2023-04-01T11:24:06.243Z,98825.00
2023-04-01T11:29:58.866Z,98823.60
2023-04-01T11:35:44.135Z,98821.40
2023-04-01T11:41:12.103Z,98824.60
2023-04-01T11:46:34.930Z,98827.60
2023-04-01T11:52:02.533Z,98832.00
2023-04-01T11:57:54.018Z,98838.40
2023-04-01T12:03:38.236Z,98850.80
2023-04-01T12:09:21.191Z,98860.20
2023-04-01T12:14:48.878Z,98862.20
2023-04-01T12:19:58.224Z,98863.80
2023-04-01T12:25:40.052Z,98869.60
2023-04-01T12:31:16.728Z,98881.20
2023-04-01T12:36:53.425Z,98886.00
2023-04-01T12:42:23.872Z,98892.40
2023-04-01T12:47:49.311Z,98892.00
2023-04-01T12:53:30.707Z,98899.60
2023-04-01T12:59:08.741Z,98898.00
2023-04-01T13:04:46.461Z,98906.80
2023-04-01T13:10:15.052Z,98916.60
2023-04-01T13:15:57.227Z,98924.60
2023-04-01T13:21:28.540Z,98936.20
2023-04-01T13:26:55.117Z,98938.20
2023-04-01T13:32:13.571Z,98943.60
2023-04-01T13:37:50.885Z,98949.60
2023-04-01T13:43:41.136Z,98946.00
2023-04-01T13:49:08.977Z,98953.60
2023-04-01T13:54:55.590Z,98956.40
2023-04-01T14:00:12.527Z,98965.40
2023-04-01T14:05:46.456Z,98972.40
2023-04-01T14:11:21.341Z,98981.80
2023-04-01T14:16:53.085Z,98984.60
2023-04-01T14:22:33.881Z,98991.40
2023-04-01T14:28:11.812Z,99002.20
2023-04-01T14:33:51.969Z,98999.60
2023-04-01T14:39:29.177Z,99003.40
2023-04-01T14:45:07.516Z,99010.20
2023-04-01T14:50:19.491Z,99016.40
2023-04-01T14:55:39.629Z,99021.60
2023-04-01T15:01:04.251Z,99033.40
2023-04-01T15:07:08.586Z,99038.40
2023-04-01T15:13:19.901Z,99045.80
2023-04-01T15:19:14.708Z,99055.80
2023-04-01T15:24:28.202Z,99067.40
2023-04-01T15:30:06.083Z,99074.80
2023-04-01T15:35:27.320Z,99081.00
2023-04-01T15:41:05.249Z,99090.60
2023-04-01T15:46:49.025Z,99098.00
2023-04-01T15:52:16.068Z,99103.40
2023-04-01T15:57:53.595Z,99108.20
2023-04-01T16:03:53.994Z,99115.40
2023-04-01T16:09:17.814Z,99126.20
2023-04-01T16:15:01.266Z,99135.80
2023-04-01T16:20:19.521Z,99141.40
2023-04-01T16:25:48.521Z,99153.40
2023-04-01T16:31:28.010Z,99165.00
2023-04-01T16:36:52.826Z,99173.60
2023-04-01T16:42:26.135Z,99180.00
2023-04-01T16:47:47.005Z,99190.60
2023-04-01T16:53:12.678Z,99199.20
2023-04-01T16:58:28.554Z,99203.40
2023-04-01T17:03:45.443Z,99213.00
2023-04-01T17:09:32.776Z,99220.80
2023-04-01T17:14:59.528Z,99230.40
2023-04-01T17:20:28.853Z,99242.00
2023-04-01T17:26:35.140Z,99252.40
2023-04-01T17:31:47.284Z,99266.20
2023-04-01T17:37:24.685Z,99272.40
2023-04-01T17:43:03.208Z,99272.00
2023-04-01T17:48:34.584Z,99285.80
2023-04-01T17:54:06.309Z,99289.60
2023-04-01T17:59:19.797Z,99299.00
2023-04-01T18:05:08.072Z,99308.80
2023-04-01T18:10:41.424Z,99315.00
2023-04-01T18:16:03.970Z,99323.40
2023-04-01T18:21:25.687Z,99323.40
2023-04-01T18:26:38.538Z,99335.20
2023-04-01T18:31:54.736Z,99343.40
2023-04-01T18:37:20.793Z,99358.00
2023-04-01T18:42:49.078Z,99361.20
2023-04-01T18:48:06.355Z,99365.80
2023-04-01T18:53:37.787Z,99369.80
2023-04-01T18:58:59.423Z,99372.20
2023-04-01T19:04:24.252Z,99389.60
2023-04-01T19:09:47.331Z,99391.20
2023-04-01T19:15:24.207Z,99404.80
2023-04-01T19:20:58.506Z,99406.60
2023-04-01T19:26:15.032Z,99416.20
2023-04-01T19:31:41.613Z,99428.20
2023-04-01T19:37:03.573Z,99425.40
2023-04-01T19:42:28.813Z,99429.60
2023-04-01T19:47:37.850Z,99439.60
2023-04-01T19:52:44.846Z,99443.80
2023-04-01T19:58:02.079Z,99453.60
2023-04-01T20:03:27.824Z,99461.40
2023-04-01T20:09:05.124Z,99466.20
2023-04-01T20:14:37.937Z,99471.60
2023-04-01T20:19:53.642Z,99472.60
2023-04-01T20:25:11.446Z,99480.60
2023-04-01T20:30:38.346Z,99477.80
2023-04-01T20:36:13.863Z,99489.80
2023-04-01T20:41:46.722Z,99489.20
2023-04-01T20:47:03.983Z,99500.20
2023-04-01T20:52:50.897Z,99505.60
2023-04-01T20:58:12.458Z,99518.80
2023-04-01T21:04:00.164Z,99521.00
2023-04-01T21:09:47.215Z,99523.60
2023-04-01T21:15:21.592Z,99528.40
2023-04-01T21:20:37.324Z,99531.20
2023-04-01T21:26:26.671Z,99544.60
2023-04-01T21:32:25.405Z,99553.60
2023-04-01T21:38:05.633Z,99553.60
2023-04-01T21:43:39.787Z,99555.40
2023-04-01T21:49:06.236Z,99557.40
2023-04-01T21:54:36.881Z,99561.40
2023-04-01T22:00:17.589Z,99557.00
2023-04-01T22:05:38.094Z,99565.60
2023-04-01T22:11:18.155Z,99579.40
2023-04-01T22:16:55.861Z,99583.20
2023-04-01T22:22:47.298Z,99587.00
2023-04-01T22:28:07.998Z,99592.20
2023-04-01T22:33:34.482Z,99597.80
2023-04-01T22:39:15.585Z,99605.00
2023-04-01T22:44:38.662Z,99609.80
2023-04-01T22:50:26.606Z,99613.60
2023-04-01T22:55:35.909Z,99620.60
2023-04-01T23:00:55.983Z,99624.00
2023-04-01T23:06:03.051Z,99627.40
2023-04-01T23:11:11.538Z,99630.00
2023-04-01T23:16:15.600Z,99630.20
2023-04-01T23:21:44.594Z,99637.40
2023-04-01T23:27:36.263Z,99645.80
2023-04-01T23:32:39.341Z,99654.40
2023-04-01T23:37:42.551Z,99663.20
2023-04-01T23:42:45.817Z,99669.40
2023-04-01T23:47:51.665Z,99673.80
2023-04-01T23:53:05.021Z,99680.40
2023-04-01T23:58:08.476Z,99683.60
